Maia Sophie — WDJ2275 — position and weather

sailwx.info

Track history (hours):
 
Tides and Currents Weather Stations Pressure Air Temp Water Temp Dewpoint Dewpoint Depression Visibility Wind Speed Wind Dir Waves Ship Positions

Maia Sophie

Owner: Baumeister, Brendon, Palm Harbor, FL. More information available from US FCC via Universal Licensing System and Coast Guard Vessel Documentation Center.

Last reported at 2018-Feb-18 00:50 UTC. Time now 2018-Feb-22 03:14 UTC.
Position N 17°10' W 062°07'.

Length 12 m.

Type: Sailing vessel. MMSI: 367756810.

Date/timePositionNaut miles runAvg speedWind from/ knotsBaromVisibWave heightAir tempDewpointWater temp
2018-Feb-18 00:50N 17°10' W 062°07'2 6.1
2018-Feb-18 00:28N 17°09' W 062°05'3 6.0
2018-Feb-18 00:00N 17°09' W 062°03'3 5.8
2018-Feb-17 23:30N 17°07' W 061°60'3 5.5
2018-Feb-17 23:00N 17°06' W 061°57'3 4.9
2018-Feb-17 22:28N 17°05' W 061°55'1 2.1
2018-Feb-17 21:56N 17°05' W 061°54'0 0.0
2018-Feb-17 21:29N 17°05' W 061°54'0 0.0
2018-Feb-17 16:14N 17°05' W 061°54'0 0.0
2018-Feb-17 15:56N 17°05' W 061°54'0 0.0
2018-Feb-17 15:29N 17°05' W 061°54'0 0.0
2018-Feb-17 14:59N 17°05' W 061°54'2 3.3
2018-Feb-17 14:30N 17°05' W 061°55'2 4.5
2018-Feb-17 14:00N 17°07' W 061°55'3 5.2
2018-Feb-17 13:30N 17°09' W 061°53'3 5.6
2018-Feb-17 13:00N 17°11' W 061°50'3 6.5
2018-Feb-17 12:30N 17°10' W 061°47'1 2.4
2018-Feb-17 11:55N 17°09' W 061°46'0 0.0
2018-Feb-17 11:25N 17°09' W 061°46'0 0.0
2018-Feb-17 10:58N 17°09' W 061°46'0 0.0
2018-Feb-17 10:28N 17°09' W 061°46'0 0.0
2018-Feb-17 09:58N 17°09' W 061°46'0 0.0
2018-Feb-17 09:28N 17°09' W 061°46'0 0.0
2018-Feb-17 08:58N 17°09' W 061°46'0 0.0
2018-Feb-17 08:28N 17°09' W 061°46'0 0.0
2018-Feb-17 07:58N 17°09' W 061°46'0 0.0
2018-Feb-17 07:28N 17°09' W 061°46'0 0.0
2018-Feb-17 06:58N 17°09' W 061°46'0 0.0
2018-Feb-17 06:28N 17°09' W 061°46'0 0.0
2018-Feb-17 05:55N 17°09' W 061°46'0 0.0
2018-Feb-17 05:28N 17°09' W 061°46'0 0.0
2018-Feb-17 04:58N 17°09' W 061°46'0 0.0
2018-Feb-17 04:28N 17°09' W 061°46'0 0.0
2018-Feb-17 03:58N 17°09' W 061°46'0 0.0
2018-Feb-17 03:28N 17°09' W 061°46'0 0.0
2018-Feb-17 02:58N 17°09' W 061°46'0 0.0
2018-Feb-17 02:25N 17°09' W 061°46'0 0.0
2018-Feb-17 01:58N 17°09' W 061°46'0 0.0
2018-Feb-17 01:28N 17°09' W 061°46'0 0.0
2018-Feb-17 00:58N 17°09' W 061°46'0 0.0
2018-Feb-17 00:25N 17°09' W 061°46'0 0.0
2018-Feb-16 23:58N 17°09' W 061°46'0 0.0
2018-Feb-16 23:28N 17°09' W 061°46'0 0.0
2018-Feb-16 22:55N 17°09' W 061°46'0 0.0
2018-Feb-16 22:28N 17°09' W 061°46'0 0.0
2018-Feb-16 21:58N 17°09' W 061°46'0 0.0
2018-Feb-16 21:28N 17°09' W 061°46'0 0.0
2018-Feb-16 20:58N 17°09' W 061°46'0 0.0
2018-Feb-16 20:28N 17°09' W 061°46'0 0.0
2018-Feb-16 19:58N 17°09' W 061°46'0 0.0
2018-Feb-16 19:28N 17°09' W 061°46'0 0.0
2018-Feb-16 18:55N 17°09' W 061°46'0 0.0
2018-Feb-16 18:28N 17°09' W 061°46'0 0.0
2018-Feb-16 17:58N 17°09' W 061°46'0 0.0
2018-Feb-16 17:28N 17°09' W 061°46'0 0.0
2018-Feb-16 16:58N 17°09' W 061°46'0 0.0
2018-Feb-16 16:25N 17°09' W 061°46'0 0.0
2018-Feb-16 15:58N 17°09' W 061°46'0 0.0
2018-Feb-16 15:28N 17°09' W 061°46'0 0.0
2018-Feb-16 14:58N 17°09' W 061°46'0 0.0
2018-Feb-16 14:25N 17°09' W 061°46'0 0.0
2018-Feb-16 13:58N 17°09' W 061°46'0 0.0
2018-Feb-16 13:28N 17°09' W 061°46'0 0.0
2018-Feb-16 12:58N 17°09' W 061°46'0 0.0
2018-Feb-16 12:28N 17°09' W 061°46'0 0.0
2018-Feb-16 11:58N 17°09' W 061°46'0 0.0
2018-Feb-16 11:28N 17°09' W 061°46'0 0.0
2018-Feb-16 10:58N 17°09' W 061°46'0 0.0
2018-Feb-16 10:28N 17°09' W 061°46'0 0.0
2018-Feb-16 09:58N 17°09' W 061°46'0 0.0
2018-Feb-16 09:28N 17°09' W 061°46'0 0.0
2018-Feb-16 08:58N 17°09' W 061°46'0 0.0
2018-Feb-16 08:28N 17°09' W 061°46'0 0.0
2018-Feb-16 07:58N 17°09' W 061°46'0 0.0
2018-Feb-16 07:28N 17°09' W 061°46'0 0.0
2018-Feb-16 06:58N 17°09' W 061°46'0 0.0
2018-Feb-16 06:28N 17°09' W 061°46'0 0.0
2018-Feb-16 05:58N 17°09' W 061°46'0 0.0
2018-Feb-16 05:28N 17°09' W 061°46'0 0.0
2018-Feb-16 04:55N 17°09' W 061°46'0 0.0
2018-Feb-16 04:28N 17°09' W 061°46'0 0.0
2018-Feb-16 03:58N 17°09' W 061°46'0 0.0
2018-Feb-16 03:28N 17°09' W 061°46'0 0.0
2018-Feb-16 02:58N 17°09' W 061°46'0 0.0
2018-Feb-16 02:28N 17°09' W 061°46'0 0.0
2018-Feb-16 01:58N 17°09' W 061°46'0 0.0
2018-Feb-16 01:28N 17°09' W 061°46'0 0.0
2018-Feb-16 00:58N 17°09' W 061°46'0 0.0
2018-Feb-16 00:28N 17°09' W 061°46'0 0.0
2018-Feb-15 23:55N 17°09' W 061°46'0 0.0
2018-Feb-15 23:28N 17°09' W 061°46'0 0.0
2018-Feb-15 22:58N 17°09' W 061°46'0 0.0
2018-Feb-15 22:25N 17°09' W 061°46'0 0.0
2018-Feb-15 21:58N 17°09' W 061°46'0 0.0
2018-Feb-15 21:28N 17°09' W 061°46'0 0.0
2018-Feb-15 20:58N 17°09' W 061°46'0 0.0
2018-Feb-15 20:28N 17°09' W 061°46'0 0.0
2018-Feb-15 19:58N 17°09' W 061°46'0 0.0
2018-Feb-15 19:28N 17°09' W 061°46'0 0.0
2018-Feb-15 18:55N 17°09' W 061°46'0 0.0
2018-Feb-15 18:28N 17°09' W 061°46'0 0.0
2018-Feb-15 17:58N 17°09' W 061°46'0 0.0
2018-Feb-15 17:28N 17°09' W 061°46'0 0.0
2018-Feb-15 16:58N 17°09' W 061°46'0 0.0
2018-Feb-15 16:28N 17°09' W 061°46'0 0.0
2018-Feb-15 15:55N 17°09' W 061°46'0 0.0
2018-Feb-15 15:28N 17°09' W 061°46'0 0.0
2018-Feb-15 14:58N 17°09' W 061°46'0 0.0
2018-Feb-15 14:28N 17°09' W 061°46'0 0.0
2018-Feb-15 13:58N 17°09' W 061°46'0 0.0
2018-Feb-15 13:28N 17°09' W 061°46'0 0.0
2018-Feb-15 12:55N 17°09' W 061°46'0 0.0
2018-Feb-15 12:28N 17°09' W 061°46'0 0.0
2018-Feb-15 11:58N 17°09' W 061°46'0 0.0
2018-Feb-15 11:28N 17°09' W 061°46'0 0.0
2018-Feb-15 10:58N 17°09' W 061°46'0 0.0
2018-Feb-15 10:25N 17°09' W 061°46'0 0.0
2018-Feb-15 09:58N 17°09' W 061°46'0 0.0
2018-Feb-15 09:28N 17°09' W 061°46'0 0.0
2018-Feb-15 08:58N 17°09' W 061°46'0 0.0
2018-Feb-15 08:28N 17°09' W 061°46'0 0.0
2018-Feb-15 07:58N 17°09' W 061°46'0 0.0
2018-Feb-15 07:28N 17°09' W 061°46'0 0.0
2018-Feb-15 06:58N 17°09' W 061°46'0 0.0
2018-Feb-15 06:25N 17°09' W 061°46'0 0.0
2018-Feb-15 05:58N 17°09' W 061°46'0 0.0
2018-Feb-15 05:28N 17°09' W 061°46'0 0.0
2018-Feb-15 04:58N 17°09' W 061°46'0 0.0
2018-Feb-15 04:28N 17°09' W 061°46'0 0.0
2018-Feb-15 03:58N 17°09' W 061°46'0 0.0
2018-Feb-15 03:25N 17°09' W 061°46'0 0.0
2018-Feb-15 02:55N 17°09' W 061°46'0 0.0
2018-Feb-15 02:28N 17°09' W 061°46'0 0.0
2018-Feb-15 01:58N 17°09' W 061°46'0 0.0
2018-Feb-15 01:28N 17°09' W 061°46'0 0.0
2018-Feb-15 00:58N 17°09' W 061°46'0 0.0
2018-Feb-15 00:28N 17°09' W 061°46'0 0.0
2018-Feb-14 23:58N 17°09' W 061°46'0 0.0
2018-Feb-14 23:28N 17°09' W 061°46'0 0.0
2018-Feb-14 22:58N 17°09' W 061°46'0 0.0
2018-Feb-14 22:28N 17°09' W 061°46'0 0.0
2018-Feb-14 21:58N 17°09' W 061°46'0 0.0
2018-Feb-14 21:28N 17°09' W 061°46'0 0.0
2018-Feb-14 20:58N 17°09' W 061°46'0 0.0
2018-Feb-14 20:28N 17°09' W 061°46'0 0.0
2018-Feb-14 19:58N 17°09' W 061°46'0 0.0
2018-Feb-14 19:25N 17°09' W 061°46'0 0.0
2018-Feb-14 18:58N 17°09' W 061°46'0 0.0
2018-Feb-14 18:28N 17°09' W 061°46'0 0.0
2018-Feb-14 17:58N 17°09' W 061°46'0 0.0
2018-Feb-14 17:28N 17°09' W 061°46'0 0.0
2018-Feb-14 16:58N 17°09' W 061°46'0 0.0
2018-Feb-14 16:28N 17°09' W 061°46'0 0.0
2018-Feb-14 15:58N 17°09' W 061°46'0 0.0
2018-Feb-14 15:30N 17°09' W 061°46'2 3.6
2018-Feb-14 15:00N 17°10' W 061°48'2 4.0
2018-Feb-14 14:30N 17°11' W 061°50'2 3.6
2018-Feb-14 14:00N 17°10' W 061°51'2 4.8
2018-Feb-14 13:30N 17°08' W 061°53'2 4.5
2018-Feb-14 13:00N 17°06' W 061°55'5 4.6
2018-Feb-14 11:52N 17°01' W 061°54'2 5.6
2018-Feb-14 11:30N 17°00' W 061°52'3 6.2
2018-Feb-14 11:00N 17°00' W 061°49'2 4.5
2018-Feb-14 10:28N 17°01' W 061°47'0 0.0
2018-Feb-14 09:58N 17°01' W 061°47'0 0.0
2018-Feb-14 09:28N 17°01' W 061°47'0 0.0
2018-Feb-14 08:58N 17°01' W 061°47'0 0.0
2018-Feb-14 08:28N 17°01' W 061°47'0 0.0
2018-Feb-14 07:58N 17°01' W 061°47'0 0.0
2018-Feb-14 07:28N 17°01' W 061°47'0 0.0
2018-Feb-14 06:58N 17°01' W 061°47'0 0.0
2018-Feb-14 06:28N 17°01' W 061°47'0 0.0
2018-Feb-14 05:58N 17°01' W 061°47'0 0.0
2018-Feb-14 05:28N 17°01' W 061°47'0 0.0
2018-Feb-14 04:58N 17°01' W 061°47'0 0.0
2018-Feb-14 04:28N 17°01' W 061°47'0 0.0
2018-Feb-14 03:58N 17°01' W 061°47'0 0.0
2018-Feb-14 03:28N 17°01' W 061°47'0 0.0
2018-Feb-14 02:55N 17°01' W 061°47'0 0.0
2018-Feb-14 02:28N 17°01' W 061°47'0 0.0
2018-Feb-14 01:58N 17°01' W 061°47'0 0.0
2018-Feb-14 01:28N 17°01' W 061°47'0 0.0
2018-Feb-14 00:58N 17°01' W 061°47'0 0.0
2018-Feb-14 00:28N 17°01' W 061°47'0 0.0
2018-Feb-13 23:58N 17°01' W 061°47'0 0.0
2018-Feb-13 23:28N 17°01' W 061°47'0 0.0
2018-Feb-13 22:58N 17°01' W 061°47'0 0.0
2018-Feb-13 22:28N 17°01' W 061°47'0 0.0
2018-Feb-13 21:58N 17°01' W 061°47'0 0.0
2018-Feb-13 21:28N 17°01' W 061°47'0 0.0
2018-Feb-13 20:58N 17°01' W 061°47'0 0.0
2018-Feb-13 20:28N 17°01' W 061°47'0 0.0
2018-Feb-13 20:00N 17°01' W 061°47'0 0.0
2018-Feb-13 19:30N 17°01' W 061°47'0 0.0
2018-Feb-13 19:00N 17°01' W 061°47'0 0.0
2018-Feb-13 18:30N 17°01' W 061°47'0 0.0
2018-Feb-13 17:59N 17°01' W 061°47'0 0.0
2018-Feb-13 17:29N 17°01' W 061°47'0 0.0
2018-Feb-13 17:00N 17°01' W 061°47'0 0.0
2018-Feb-13 16:30N 17°01' W 061°47'0 0.0
2018-Feb-13 16:00N 17°01' W 061°47'0 0.0
2018-Feb-13 15:30N 17°01' W 061°47'0 0.0
2018-Feb-13 15:00N 17°01' W 061°47'0 0.0
2018-Feb-13 14:28N 17°01' W 061°47'0 0.0
2018-Feb-13 13:58N 17°01' W 061°47'0 0.0
2018-Feb-13 13:28N 17°01' W 061°47'0 0.0
2018-Feb-13 12:58N 17°01' W 061°47'0 0.0
2018-Feb-13 12:28N 17°01' W 061°47'0 0.0
2018-Feb-13 11:58N 17°01' W 061°47'0 0.0
2018-Feb-13 11:28N 17°01' W 061°47'0 0.0
2018-Feb-13 10:58N 17°01' W 061°47'0 0.0
2018-Feb-13 10:25N 17°01' W 061°47'0 0.0
2018-Feb-13 09:58N 17°01' W 061°47'0 0.0
2018-Feb-13 09:28N 17°01' W 061°47'0 0.0
2018-Feb-13 08:58N 17°01' W 061°47'0 0.0
2018-Feb-13 08:28N 17°01' W 061°47'0 0.0
2018-Feb-13 07:55N 17°01' W 061°47'0 0.0
2018-Feb-13 07:28N 17°01' W 061°47'0 0.0
2018-Feb-13 06:55N 17°01' W 061°47'0 0.0
2018-Feb-13 06:28N 17°01' W 061°47'0 0.0
2018-Feb-13 05:55N 17°01' W 061°47'0 0.0
2018-Feb-13 05:25N 17°01' W 061°47'0 0.0
2018-Feb-13 04:58N 17°01' W 061°47'0 0.0
2018-Feb-13 04:28N 17°01' W 061°47'0 0.0
2018-Feb-13 03:58N 17°01' W 061°47'0 0.0
2018-Feb-13 03:22N 17°01' W 061°47'0 0.0
2018-Feb-13 02:58N 17°01' W 061°47'0 0.0
2018-Feb-13 02:28N 17°01' W 061°47'0 0.0
2018-Feb-13 01:58N 17°01' W 061°47'0 0.0
2018-Feb-13 01:28N 17°01' W 061°47'0 0.0
2018-Feb-13 00:58N 17°01' W 061°47'0 0.0
2018-Feb-13 00:28N 17°01' W 061°47'0 0.0
2018-Feb-12 23:58N 17°01' W 061°47'0 0.0
2018-Feb-12 23:28N 17°01' W 061°47'0 0.0
2018-Feb-12 22:55N 17°01' W 061°47'0 0.0
2018-Feb-12 22:28N 17°01' W 061°47'0 0.0
2018-Feb-12 21:58N 17°01' W 061°47'0 0.0
2018-Feb-12 21:25N 17°01' W 061°47'0 0.0
2018-Feb-12 20:58N 17°01' W 061°47'0 0.0
2018-Feb-12 20:28N 17°01' W 061°47'0 0.0
2018-Feb-12 19:58N 17°01' W 061°47'0 0.0
2018-Feb-12 19:28N 17°01' W 061°47'0 0.0
2018-Feb-12 18:58N 17°01' W 061°47'0 0.0
2018-Feb-12 18:28N 17°01' W 061°47'0 0.0
2018-Feb-12 18:00N 17°01' W 061°47'0 0.0
2018-Feb-12 17:26N 17°01' W 061°47'0 0.0
2018-Feb-12 16:59N 17°01' W 061°47'0 0.0
2018-Feb-12 16:29N 17°01' W 061°47'0 0.0
2018-Feb-12 15:59N 17°01' W 061°47'0 0.0
2018-Feb-12 15:15N 17°01' W 061°47'0 0.0
2018-Feb-12 15:00N 17°01' W 061°47'0 0.0
2018-Feb-12 14:30N 17°01' W 061°47'0 0.0
2018-Feb-12 14:00N 17°01' W 061°47'0 0.0
2018-Feb-12 13:30N 17°01' W 061°47'0 0.0
2018-Feb-12 13:00N 17°01' W 061°47'0 0.0
2018-Feb-12 12:30N 17°01' W 061°47'0 0.0
2018-Feb-12 12:00N 17°01' W 061°47'0 0.0
2018-Feb-12 11:30N 17°01' W 061°47'0 0.0
2018-Feb-12 10:54N 17°01' W 061°47'0 0.0
2018-Feb-12 10:30N 17°01' W 061°47'0 0.0
2018-Feb-12 10:00N 17°01' W 061°47'0 0.0
2018-Feb-12 09:30N 17°01' W 061°47'0 0.0
2018-Feb-12 09:00N 17°01' W 061°47'0 0.0
2018-Feb-12 08:27N 17°01' W 061°47'0 0.0
2018-Feb-12 08:00N 17°01' W 061°47'0 0.0
2018-Feb-12 07:24N 17°01' W 061°47'0 0.0
2018-Feb-12 07:00N 17°01' W 061°47'0 0.0
2018-Feb-12 06:30N 17°01' W 061°47'0 0.0
2018-Feb-12 06:00N 17°01' W 061°47'0 0.0
2018-Feb-12 05:30N 17°01' W 061°47'0 0.0
2018-Feb-12 05:00N 17°01' W 061°47'0 0.0
2018-Feb-12 04:30N 17°01' W 061°47'0 0.0
2018-Feb-12 04:00N 17°01' W 061°47'0 0.0
2018-Feb-12 03:30N 17°01' W 061°47'0 0.0
2018-Feb-12 03:00N 17°01' W 061°47'0 0.0
2018-Feb-12 02:30N 17°01' W 061°47'0 0.0
2018-Feb-12 02:00N 17°01' W 061°47'0 0.0
2018-Feb-12 01:30N 17°01' W 061°47'0 0.0
2018-Feb-12 01:00N 17°01' W 061°47'0 0.0
2018-Feb-12 00:30N 17°01' W 061°47'0 0.0
2018-Feb-12 00:00N 17°01' W 061°47'0 0.0
2018-Feb-11 23:30N 17°01' W 061°47'0 0.0
2018-Feb-11 23:00N 17°01' W 061°47'0 0.0
2018-Feb-11 22:30N 17°01' W 061°47'0 0.0
2018-Feb-11 22:00N 17°01' W 061°47'0 0.0
2018-Feb-11 21:30N 17°01' W 061°47'0 0.0
2018-Feb-11 21:00N 17°01' W 061°47'0 0.0
2018-Feb-11 20:30N 17°01' W 061°47'0 0.0
2018-Feb-11 19:57N 17°01' W 061°47'0 0.0
2018-Feb-11 19:30N 17°01' W 061°47'0 0.0
2018-Feb-11 19:00N 17°01' W 061°47'0 0.0
2018-Feb-11 18:30N 17°01' W 061°47'0 0.0
2018-Feb-11 18:00N 17°01' W 061°47'0 0.0
2018-Feb-11 17:30N 17°01' W 061°47'0 0.0
2018-Feb-11 17:00N 17°01' W 061°47'0 0.0
2018-Feb-11 16:28N 17°01' W 061°47'0 0.0
2018-Feb-11 15:58N 17°01' W 061°47'0 0.0
2018-Feb-11 15:25N 17°01' W 061°47'0 0.0
2018-Feb-11 14:58N 17°01' W 061°47'0 0.0
2018-Feb-11 14:28N 17°01' W 061°47'0 0.0
2018-Feb-11 13:58N 17°01' W 061°47'0 0.0
2018-Feb-11 13:28N 17°01' W 061°47'0 0.0
2018-Feb-11 12:58N 17°01' W 061°47'0 0.0
2018-Feb-11 12:25N 17°01' W 061°47'0 0.0
2018-Feb-11 11:58N 17°01' W 061°47'0 0.0
2018-Feb-11 11:28N 17°01' W 061°47'0 0.0
2018-Feb-11 10:55N 17°01' W 061°47'0 0.0
2018-Feb-11 10:28N 17°01' W 061°47'0 0.0
2018-Feb-11 09:58N 17°01' W 061°47'0 0.0
2018-Feb-11 09:28N 17°01' W 061°47'0 0.0
2018-Feb-11 08:55N 17°01' W 061°47'0 0.0
2018-Feb-11 08:19N 17°01' W 061°47'0 0.0
2018-Feb-11 07:58N 17°01' W 061°47'0 0.0
2018-Feb-11 07:28N 17°01' W 061°47'0 0.0
2018-Feb-11 06:58N 17°01' W 061°47'0 0.0
2018-Feb-11 06:28N 17°01' W 061°47'0 0.0
2018-Feb-11 05:58N 17°01' W 061°47'0 0.0
2018-Feb-11 05:28N 17°01' W 061°47'0 0.0
2018-Feb-11 04:58N 17°01' W 061°47'0 0.0
2018-Feb-11 04:28N 17°01' W 061°47'0 0.0
2018-Feb-11 03:58N 17°01' W 061°47'0 0.0
2018-Feb-11 03:28N 17°01' W 061°47'0 0.0
2018-Feb-11 02:58N 17°01' W 061°47'0 0.0
2018-Feb-11 02:22N 17°01' W 061°47'0 0.0
2018-Feb-11 01:58N 17°01' W 061°47'0 0.0
2018-Feb-11 01:25N 17°01' W 061°47'0 0.0
2018-Feb-11 00:58N 17°01' W 061°47'0 0.0
2018-Feb-11 00:28N 17°01' W 061°47'0 0.0
2018-Feb-10 23:58N 17°01' W 061°47'0 0.0
2018-Feb-10 23:25N 17°01' W 061°47'0 0.0
2018-Feb-10 22:58N 17°01' W 061°47'0 0.0
2018-Feb-10 22:28N 17°01' W 061°47'0 0.0
2018-Feb-10 21:58N 17°01' W 061°47'0 0.0
2018-Feb-10 21:28N 17°01' W 061°47'0 0.0
2018-Feb-10 20:58N 17°01' W 061°47'0 0.0
2018-Feb-10 20:28N 17°01' W 061°47'0 0.0
2018-Feb-10 19:55N 17°01' W 061°47'0 0.0
2018-Feb-10 19:28N 17°01' W 061°47'0 0.0
2018-Feb-10 18:58N 17°01' W 061°47'0 0.0
2018-Feb-10 18:28N 17°01' W 061°47'0 0.0
2018-Feb-10 17:58N 17°01' W 061°47'0 0.0
2018-Feb-10 17:28N 17°01' W 061°47'0 0.0
2018-Feb-10 16:55N 17°01' W 061°47'0 0.0
2018-Feb-10 16:28N 17°01' W 061°47'0 0.0
2018-Feb-10 15:58N 17°01' W 061°47'0 0.0
2018-Feb-10 15:28N 17°01' W 061°47'0 0.0
2018-Feb-10 14:58N 17°01' W 061°47'0 0.0
2018-Feb-10 14:28N 17°01' W 061°47'0 0.0
2018-Feb-10 13:58N 17°01' W 061°47'0 0.0
2018-Feb-10 13:28N 17°01' W 061°47'0 0.0
2018-Feb-10 12:58N 17°01' W 061°47'0 0.0
2018-Feb-10 12:28N 17°01' W 061°47'0 0.0
2018-Feb-10 11:58N 17°01' W 061°47'0 0.0
2018-Feb-10 11:28N 17°01' W 061°47'0 0.0
2018-Feb-10 10:58N 17°01' W 061°47'0 0.0
2018-Feb-10 10:28N 17°01' W 061°47'0 0.0
2018-Feb-10 09:58N 17°01' W 061°47'0 0.0
2018-Feb-10 09:25N 17°01' W 061°47'0 0.0
2018-Feb-10 08:58N 17°01' W 061°47'0 0.0
2018-Feb-10 08:28N 17°01' W 061°47'0 0.0
2018-Feb-10 07:58N 17°01' W 061°47'0 0.0
2018-Feb-10 07:28N 17°01' W 061°47'0 0.0
2018-Feb-10 06:58N 17°01' W 061°47'0 0.0
2018-Feb-10 06:28N 17°01' W 061°47'0 0.0
2018-Feb-10 05:58N 17°01' W 061°47'0 0.0
2018-Feb-10 05:28N 17°01' W 061°47'0 0.0
2018-Feb-10 04:58N 17°01' W 061°47'0 0.0
2018-Feb-10 04:28N 17°01' W 061°47'0 0.0
2018-Feb-10 03:58N 17°01' W 061°47'0 0.0
2018-Feb-10 03:28N 17°01' W 061°47'0 0.0
2018-Feb-10 02:58N 17°01' W 061°47'0 0.0
2018-Feb-10 02:28N 17°01' W 061°47'0 0.0
2018-Feb-10 01:58N 17°01' W 061°47'0 0.0
2018-Feb-10 01:28N 17°01' W 061°47'0 0.0
2018-Feb-10 00:58N 17°01' W 061°47'0 0.0
2018-Feb-10 00:28N 17°01' W 061°47'0 0.0
2018-Feb-09 23:58N 17°01' W 061°47'0 0.0
2018-Feb-09 23:28N 17°01' W 061°47'0 0.0
2018-Feb-09 22:58N 17°01' W 061°47'0 0.0
2018-Feb-09 22:46N 17°01' W 061°47'7 0.2
2018-Feb-08 01:29N 17°04' W 061°40'0 0.0
2018-Feb-08 00:59N 17°04' W 061°40'  
Track history (hours):
 
Tides and Currents Weather Stations Pressure Air Temp Water Temp Dewpoint Dewpoint Depression Visibility Wind Speed Wind Dir Waves Ship Positions

Maia Sophie

Owner: Baumeister, Brendon, Palm Harbor, FL. More information available from US FCC via Universal Licensing System and Coast Guard Vessel Documentation Center.

Last reported at 2018-Feb-18 00:50 UTC. Time now 2018-Feb-22 03:14 UTC.
Position N 17°10' W 062°07'.

Length 12 m.

Type: Sailing vessel. MMSI: 367756810.

Date/timePositionNaut miles runAvg speedWind from/ knotsBaromVisibWave heightAir tempDewpointWater temp
2018-Feb-18 00:50N 17°10' W 062°07'2 6.1
2018-Feb-18 00:28N 17°09' W 062°05'3 6.0
2018-Feb-18 00:00N 17°09' W 062°03'3 5.8
2018-Feb-17 23:30N 17°07' W 061°60'3 5.5
2018-Feb-17 23:00N 17°06' W 061°57'3 4.9
2018-Feb-17 22:28N 17°05' W 061°55'1 2.1
2018-Feb-17 21:56N 17°05' W 061°54'0 0.0
2018-Feb-17 21:29N 17°05' W 061°54'0 0.0
2018-Feb-17 16:14N 17°05' W 061°54'0 0.0
2018-Feb-17 15:56N 17°05' W 061°54'0 0.0
2018-Feb-17 15:29N 17°05' W 061°54'0 0.0
2018-Feb-17 14:59N 17°05' W 061°54'2 3.3
2018-Feb-17 14:30N 17°05' W 061°55'2 4.5
2018-Feb-17 14:00N 17°07' W 061°55'3 5.2
2018-Feb-17 13:30N 17°09' W 061°53'3 5.6
2018-Feb-17 13:00N 17°11' W 061°50'3 6.5
2018-Feb-17 12:30N 17°10' W 061°47'1 2.4
2018-Feb-17 11:55N 17°09' W 061°46'0 0.0
2018-Feb-17 11:25N 17°09' W 061°46'0 0.0
2018-Feb-17 10:58N 17°09' W 061°46'0 0.0
2018-Feb-17 10:28N 17°09' W 061°46'0 0.0
2018-Feb-17 09:58N 17°09' W 061°46'0 0.0
2018-Feb-17 09:28N 17°09' W 061°46'0 0.0
2018-Feb-17 08:58N 17°09' W 061°46'0 0.0
2018-Feb-17 08:28N 17°09' W 061°46'0 0.0
2018-Feb-17 07:58N 17°09' W 061°46'0 0.0
2018-Feb-17 07:28N 17°09' W 061°46'0 0.0
2018-Feb-17 06:58N 17°09' W 061°46'0 0.0
2018-Feb-17 06:28N 17°09' W 061°46'0 0.0
2018-Feb-17 05:55N 17°09' W 061°46'0 0.0
2018-Feb-17 05:28N 17°09' W 061°46'0 0.0
2018-Feb-17 04:58N 17°09' W 061°46'0 0.0
2018-Feb-17 04:28N 17°09' W 061°46'0 0.0
2018-Feb-17 03:58N 17°09' W 061°46'0 0.0
2018-Feb-17 03:28N 17°09' W 061°46'0 0.0
2018-Feb-17 02:58N 17°09' W 061°46'0 0.0
2018-Feb-17 02:25N 17°09' W 061°46'0 0.0
2018-Feb-17 01:58N 17°09' W 061°46'0 0.0
2018-Feb-17 01:28N 17°09' W 061°46'0 0.0
2018-Feb-17 00:58N 17°09' W 061°46'0 0.0
2018-Feb-17 00:25N 17°09' W 061°46'0 0.0
2018-Feb-16 23:58N 17°09' W 061°46'0 0.0
2018-Feb-16 23:28N 17°09' W 061°46'0 0.0
2018-Feb-16 22:55N 17°09' W 061°46'0 0.0
2018-Feb-16 22:28N 17°09' W 061°46'0 0.0
2018-Feb-16 21:58N 17°09' W 061°46'0 0.0
2018-Feb-16 21:28N 17°09' W 061°46'0 0.0
2018-Feb-16 20:58N 17°09' W 061°46'0 0.0
2018-Feb-16 20:28N 17°09' W 061°46'0 0.0
2018-Feb-16 19:58N 17°09' W 061°46'0 0.0
2018-Feb-16 19:28N 17°09' W 061°46'0 0.0
2018-Feb-16 18:55N 17°09' W 061°46'0 0.0
2018-Feb-16 18:28N 17°09' W 061°46'0 0.0
2018-Feb-16 17:58N 17°09' W 061°46'0 0.0
2018-Feb-16 17:28N 17°09' W 061°46'0 0.0
2018-Feb-16 16:58N 17°09' W 061°46'0 0.0
2018-Feb-16 16:25N 17°09' W 061°46'0 0.0
2018-Feb-16 15:58N 17°09' W 061°46'0 0.0
2018-Feb-16 15:28N 17°09' W 061°46'0 0.0
2018-Feb-16 14:58N 17°09' W 061°46'0 0.0
2018-Feb-16 14:25N 17°09' W 061°46'0 0.0
2018-Feb-16 13:58N 17°09' W 061°46'0 0.0
2018-Feb-16 13:28N 17°09' W 061°46'0 0.0
2018-Feb-16 12:58N 17°09' W 061°46'0 0.0
2018-Feb-16 12:28N 17°09' W 061°46'0 0.0
2018-Feb-16 11:58N 17°09' W 061°46'0 0.0
2018-Feb-16 11:28N 17°09' W 061°46'0 0.0
2018-Feb-16 10:58N 17°09' W 061°46'0 0.0
2018-Feb-16 10:28N 17°09' W 061°46'0 0.0
2018-Feb-16 09:58N 17°09' W 061°46'0 0.0
2018-Feb-16 09:28N 17°09' W 061°46'0 0.0
2018-Feb-16 08:58N 17°09' W 061°46'0 0.0
2018-Feb-16 08:28N 17°09' W 061°46'0 0.0
2018-Feb-16 07:58N 17°09' W 061°46'0 0.0
2018-Feb-16 07:28N 17°09' W 061°46'0 0.0
2018-Feb-16 06:58N 17°09' W 061°46'0 0.0
2018-Feb-16 06:28N 17°09' W 061°46'0 0.0
2018-Feb-16 05:58N 17°09' W 061°46'0 0.0
2018-Feb-16 05:28N 17°09' W 061°46'0 0.0
2018-Feb-16 04:55N 17°09' W 061°46'0 0.0
2018-Feb-16 04:28N 17°09' W 061°46'0 0.0
2018-Feb-16 03:58N 17°09' W 061°46'0 0.0
2018-Feb-16 03:28N 17°09' W 061°46'0 0.0
2018-Feb-16 02:58N 17°09' W 061°46'0 0.0
2018-Feb-16 02:28N 17°09' W 061°46'0 0.0
2018-Feb-16 01:58N 17°09' W 061°46'0 0.0
2018-Feb-16 01:28N 17°09' W 061°46'0 0.0
2018-Feb-16 00:58N 17°09' W 061°46'0 0.0
2018-Feb-16 00:28N 17°09' W 061°46'0 0.0
2018-Feb-15 23:55N 17°09' W 061°46'0 0.0
2018-Feb-15 23:28N 17°09' W 061°46'0 0.0
2018-Feb-15 22:58N 17°09' W 061°46'0 0.0
2018-Feb-15 22:25N 17°09' W 061°46'0 0.0
2018-Feb-15 21:58N 17°09' W 061°46'0 0.0
2018-Feb-15 21:28N 17°09' W 061°46'0 0.0
2018-Feb-15 20:58N 17°09' W 061°46'0 0.0
2018-Feb-15 20:28N 17°09' W 061°46'0 0.0
2018-Feb-15 19:58N 17°09' W 061°46'0 0.0
2018-Feb-15 19:28N 17°09' W 061°46'0 0.0
2018-Feb-15 18:55N 17°09' W 061°46'0 0.0
2018-Feb-15 18:28N 17°09' W 061°46'0 0.0
2018-Feb-15 17:58N 17°09' W 061°46'0 0.0
2018-Feb-15 17:28N 17°09' W 061°46'0 0.0
2018-Feb-15 16:58N 17°09' W 061°46'0 0.0
2018-Feb-15 16:28N 17°09' W 061°46'0 0.0
2018-Feb-15 15:55N 17°09' W 061°46'0 0.0
2018-Feb-15 15:28N 17°09' W 061°46'0 0.0
2018-Feb-15 14:58N 17°09' W 061°46'0 0.0
2018-Feb-15 14:28N 17°09' W 061°46'0 0.0
2018-Feb-15 13:58N 17°09' W 061°46'0 0.0
2018-Feb-15 13:28N 17°09' W 061°46'0 0.0
2018-Feb-15 12:55N 17°09' W 061°46'0 0.0
2018-Feb-15 12:28N 17°09' W 061°46'0 0.0
2018-Feb-15 11:58N 17°09' W 061°46'0 0.0
2018-Feb-15 11:28N 17°09' W 061°46'0 0.0
2018-Feb-15 10:58N 17°09' W 061°46'0 0.0
2018-Feb-15 10:25N 17°09' W 061°46'0 0.0
2018-Feb-15 09:58N 17°09' W 061°46'0 0.0
2018-Feb-15 09:28N 17°09' W 061°46'0 0.0
2018-Feb-15 08:58N 17°09' W 061°46'0 0.0
2018-Feb-15 08:28N 17°09' W 061°46'0 0.0
2018-Feb-15 07:58N 17°09' W 061°46'0 0.0
2018-Feb-15 07:28N 17°09' W 061°46'0 0.0
2018-Feb-15 06:58N 17°09' W 061°46'0 0.0
2018-Feb-15 06:25N 17°09' W 061°46'0 0.0
2018-Feb-15 05:58N 17°09' W 061°46'0 0.0
2018-Feb-15 05:28N 17°09' W 061°46'0 0.0
2018-Feb-15 04:58N 17°09' W 061°46'0 0.0
2018-Feb-15 04:28N 17°09' W 061°46'0 0.0
2018-Feb-15 03:58N 17°09' W 061°46'0 0.0
2018-Feb-15 03:25N 17°09' W 061°46'0 0.0
2018-Feb-15 02:55N 17°09' W 061°46'0 0.0
2018-Feb-15 02:28N 17°09' W 061°46'0 0.0
2018-Feb-15 01:58N 17°09' W 061°46'0 0.0
2018-Feb-15 01:28N 17°09' W 061°46'0 0.0
2018-Feb-15 00:58N 17°09' W 061°46'0 0.0
2018-Feb-15 00:28N 17°09' W 061°46'0 0.0
2018-Feb-14 23:58N 17°09' W 061°46'0 0.0
2018-Feb-14 23:28N 17°09' W 061°46'0 0.0
2018-Feb-14 22:58N 17°09' W 061°46'0 0.0
2018-Feb-14 22:28N 17°09' W 061°46'0 0.0
2018-Feb-14 21:58N 17°09' W 061°46'0 0.0
2018-Feb-14 21:28N 17°09' W 061°46'0 0.0
2018-Feb-14 20:58N 17°09' W 061°46'0 0.0
2018-Feb-14 20:28N 17°09' W 061°46'0 0.0
2018-Feb-14 19:58N 17°09' W 061°46'0 0.0
2018-Feb-14 19:25N 17°09' W 061°46'0 0.0
2018-Feb-14 18:58N 17°09' W 061°46'0 0.0
2018-Feb-14 18:28N 17°09' W 061°46'0 0.0
2018-Feb-14 17:58N 17°09' W 061°46'0 0.0
2018-Feb-14 17:28N 17°09' W 061°46'0 0.0
2018-Feb-14 16:58N 17°09' W 061°46'0 0.0
2018-Feb-14 16:28N 17°09' W 061°46'0 0.0
2018-Feb-14 15:58N 17°09' W 061°46'0 0.0
2018-Feb-14 15:30N 17°09' W 061°46'2 3.6
2018-Feb-14 15:00N 17°10' W 061°48'2 4.0
2018-Feb-14 14:30N 17°11' W 061°50'2 3.6
2018-Feb-14 14:00N 17°10' W 061°51'2 4.8
2018-Feb-14 13:30N 17°08' W 061°53'2 4.5
2018-Feb-14 13:00N 17°06' W 061°55'5 4.6
2018-Feb-14 11:52N 17°01' W 061°54'2 5.6
2018-Feb-14 11:30N 17°00' W 061°52'3 6.2
2018-Feb-14 11:00N 17°00' W 061°49'2 4.5
2018-Feb-14 10:28N 17°01' W 061°47'0 0.0
2018-Feb-14 09:58N 17°01' W 061°47'0 0.0
2018-Feb-14 09:28N 17°01' W 061°47'0 0.0
2018-Feb-14 08:58N 17°01' W 061°47'0 0.0
2018-Feb-14 08:28N 17°01' W 061°47'0 0.0
2018-Feb-14 07:58N 17°01' W 061°47'0 0.0
2018-Feb-14 07:28N 17°01' W 061°47'0 0.0
2018-Feb-14 06:58N 17°01' W 061°47'0 0.0
2018-Feb-14 06:28N 17°01' W 061°47'0 0.0
2018-Feb-14 05:58N 17°01' W 061°47'0 0.0
2018-Feb-14 05:28N 17°01' W 061°47'0 0.0
2018-Feb-14 04:58N 17°01' W 061°47'0 0.0
2018-Feb-14 04:28N 17°01' W 061°47'0 0.0
2018-Feb-14 03:58N 17°01' W 061°47'0 0.0
2018-Feb-14 03:28N 17°01' W 061°47'0 0.0
2018-Feb-14 02:55N 17°01' W 061°47'0 0.0
2018-Feb-14 02:28N 17°01' W 061°47'0 0.0
2018-Feb-14 01:58N 17°01' W 061°47'0 0.0
2018-Feb-14 01:28N 17°01' W 061°47'0 0.0
2018-Feb-14 00:58N 17°01' W 061°47'0 0.0
2018-Feb-14 00:28N 17°01' W 061°47'0 0.0
2018-Feb-13 23:58N 17°01' W 061°47'0 0.0
2018-Feb-13 23:28N 17°01' W 061°47'0 0.0
2018-Feb-13 22:58N 17°01' W 061°47'0 0.0
2018-Feb-13 22:28N 17°01' W 061°47'0 0.0
2018-Feb-13 21:58N 17°01' W 061°47'0 0.0
2018-Feb-13 21:28N 17°01' W 061°47'0 0.0
2018-Feb-13 20:58N 17°01' W 061°47'0 0.0
2018-Feb-13 20:28N 17°01' W 061°47'0 0.0
2018-Feb-13 20:00N 17°01' W 061°47'0 0.0
2018-Feb-13 19:30N 17°01' W 061°47'0 0.0
2018-Feb-13 19:00N 17°01' W 061°47'0 0.0
2018-Feb-13 18:30N 17°01' W 061°47'0 0.0
2018-Feb-13 17:59N 17°01' W 061°47'0 0.0
2018-Feb-13 17:29N 17°01' W 061°47'0 0.0
2018-Feb-13 17:00N 17°01' W 061°47'0 0.0
2018-Feb-13 16:30N 17°01' W 061°47'0 0.0
2018-Feb-13 16:00N 17°01' W 061°47'0 0.0
2018-Feb-13 15:30N 17°01' W 061°47'0 0.0
2018-Feb-13 15:00N 17°01' W 061°47'0 0.0
2018-Feb-13 14:28N 17°01' W 061°47'0 0.0
2018-Feb-13 13:58N 17°01' W 061°47'0 0.0
2018-Feb-13 13:28N 17°01' W 061°47'0 0.0
2018-Feb-13 12:58N 17°01' W 061°47'0 0.0
2018-Feb-13 12:28N 17°01' W 061°47'0 0.0
2018-Feb-13 11:58N 17°01' W 061°47'0 0.0
2018-Feb-13 11:28N 17°01' W 061°47'0 0.0
2018-Feb-13 10:58N 17°01' W 061°47'0 0.0
2018-Feb-13 10:25N 17°01' W 061°47'0 0.0
2018-Feb-13 09:58N 17°01' W 061°47'0 0.0
2018-Feb-13 09:28N 17°01' W 061°47'0 0.0
2018-Feb-13 08:58N 17°01' W 061°47'0 0.0
2018-Feb-13 08:28N 17°01' W 061°47'0 0.0
2018-Feb-13 07:55N 17°01' W 061°47'0 0.0
2018-Feb-13 07:28N 17°01' W 061°47'0 0.0
2018-Feb-13 06:55N 17°01' W 061°47'0 0.0
2018-Feb-13 06:28N 17°01' W 061°47'0 0.0
2018-Feb-13 05:55N 17°01' W 061°47'0 0.0
2018-Feb-13 05:25N 17°01' W 061°47'0 0.0
2018-Feb-13 04:58N 17°01' W 061°47'0 0.0
2018-Feb-13 04:28N 17°01' W 061°47'0 0.0
2018-Feb-13 03:58N 17°01' W 061°47'0 0.0
2018-Feb-13 03:22N 17°01' W 061°47'0 0.0
2018-Feb-13 02:58N 17°01' W 061°47'0 0.0
2018-Feb-13 02:28N 17°01' W 061°47'0 0.0
2018-Feb-13 01:58N 17°01' W 061°47'0 0.0
2018-Feb-13 01:28N 17°01' W 061°47'0 0.0
2018-Feb-13 00:58N 17°01' W 061°47'0 0.0
2018-Feb-13 00:28N 17°01' W 061°47'0 0.0
2018-Feb-12 23:58N 17°01' W 061°47'0 0.0
2018-Feb-12 23:28N 17°01' W 061°47'0 0.0
2018-Feb-12 22:55N 17°01' W 061°47'0 0.0
2018-Feb-12 22:28N 17°01' W 061°47'0 0.0
2018-Feb-12 21:58N 17°01' W 061°47'0 0.0
2018-Feb-12 21:25N 17°01' W 061°47'0 0.0
2018-Feb-12 20:58N 17°01' W 061°47'0 0.0
2018-Feb-12 20:28N 17°01' W 061°47'0 0.0
2018-Feb-12 19:58N 17°01' W 061°47'0 0.0
2018-Feb-12 19:28N 17°01' W 061°47'0 0.0
2018-Feb-12 18:58N 17°01' W 061°47'0 0.0
2018-Feb-12 18:28N 17°01' W 061°47'0 0.0
2018-Feb-12 18:00N 17°01' W 061°47'0 0.0
2018-Feb-12 17:26N 17°01' W 061°47'0 0.0
2018-Feb-12 16:59N 17°01' W 061°47'0 0.0
2018-Feb-12 16:29N 17°01' W 061°47'0 0.0
2018-Feb-12 15:59N 17°01' W 061°47'0 0.0
2018-Feb-12 15:15N 17°01' W 061°47'0 0.0
2018-Feb-12 15:00N 17°01' W 061°47'0 0.0
2018-Feb-12 14:30N 17°01' W 061°47'0 0.0
2018-Feb-12 14:00N 17°01' W 061°47'0 0.0
2018-Feb-12 13:30N 17°01' W 061°47'0 0.0
2018-Feb-12 13:00N 17°01' W 061°47'0 0.0
2018-Feb-12 12:30N 17°01' W 061°47'0 0.0
2018-Feb-12 12:00N 17°01' W 061°47'0 0.0
2018-Feb-12 11:30N 17°01' W 061°47'0 0.0
2018-Feb-12 10:54N 17°01' W 061°47'0 0.0
2018-Feb-12 10:30N 17°01' W 061°47'0 0.0
2018-Feb-12 10:00N 17°01' W 061°47'0 0.0
2018-Feb-12 09:30N 17°01' W 061°47'0 0.0
2018-Feb-12 09:00N 17°01' W 061°47'0 0.0
2018-Feb-12 08:27N 17°01' W 061°47'0 0.0
2018-Feb-12 08:00N 17°01' W 061°47'0 0.0
2018-Feb-12 07:24N 17°01' W 061°47'0 0.0
2018-Feb-12 07:00N 17°01' W 061°47'0 0.0
2018-Feb-12 06:30N 17°01' W 061°47'0 0.0
2018-Feb-12 06:00N 17°01' W 061°47'0 0.0
2018-Feb-12 05:30N 17°01' W 061°47'0 0.0
2018-Feb-12 05:00N 17°01' W 061°47'0 0.0
2018-Feb-12 04:30N 17°01' W 061°47'0 0.0
2018-Feb-12 04:00N 17°01' W 061°47'0 0.0
2018-Feb-12 03:30N 17°01' W 061°47'0 0.0
2018-Feb-12 03:00N 17°01' W 061°47'0 0.0
2018-Feb-12 02:30N 17°01' W 061°47'0 0.0
2018-Feb-12 02:00N 17°01' W 061°47'0 0.0
2018-Feb-12 01:30N 17°01' W 061°47'0 0.0
2018-Feb-12 01:00N 17°01' W 061°47'0 0.0
2018-Feb-12 00:30N 17°01' W 061°47'0 0.0
2018-Feb-12 00:00N 17°01' W 061°47'0 0.0
2018-Feb-11 23:30N 17°01' W 061°47'0 0.0
2018-Feb-11 23:00N 17°01' W 061°47'0 0.0
2018-Feb-11 22:30N 17°01' W 061°47'0 0.0
2018-Feb-11 22:00N 17°01' W 061°47'0 0.0
2018-Feb-11 21:30N 17°01' W 061°47'0 0.0
2018-Feb-11 21:00N 17°01' W 061°47'0 0.0
2018-Feb-11 20:30N 17°01' W 061°47'0 0.0
2018-Feb-11 19:57N 17°01' W 061°47'0 0.0
2018-Feb-11 19:30N 17°01' W 061°47'0 0.0
2018-Feb-11 19:00N 17°01' W 061°47'0 0.0
2018-Feb-11 18:30N 17°01' W 061°47'0 0.0
2018-Feb-11 18:00N 17°01' W 061°47'0 0.0
2018-Feb-11 17:30N 17°01' W 061°47'0 0.0
2018-Feb-11 17:00N 17°01' W 061°47'0 0.0
2018-Feb-11 16:28N 17°01' W 061°47'0 0.0
2018-Feb-11 15:58N 17°01' W 061°47'0 0.0
2018-Feb-11 15:25N 17°01' W 061°47'0 0.0
2018-Feb-11 14:58N 17°01' W 061°47'0 0.0
2018-Feb-11 14:28N 17°01' W 061°47'0 0.0
2018-Feb-11 13:58N 17°01' W 061°47'0 0.0
2018-Feb-11 13:28N 17°01' W 061°47'0 0.0
2018-Feb-11 12:58N 17°01' W 061°47'0 0.0
2018-Feb-11 12:25N 17°01' W 061°47'0 0.0
2018-Feb-11 11:58N 17°01' W 061°47'0 0.0
2018-Feb-11 11:28N 17°01' W 061°47'0 0.0
2018-Feb-11 10:55N 17°01' W 061°47'0 0.0
2018-Feb-11 10:28N 17°01' W 061°47'0 0.0
2018-Feb-11 09:58N 17°01' W 061°47'0 0.0
2018-Feb-11 09:28N 17°01' W 061°47'0 0.0
2018-Feb-11 08:55N 17°01' W 061°47'0 0.0
2018-Feb-11 08:19N 17°01' W 061°47'0 0.0
2018-Feb-11 07:58N 17°01' W 061°47'0 0.0
2018-Feb-11 07:28N 17°01' W 061°47'0 0.0
2018-Feb-11 06:58N 17°01' W 061°47'0 0.0
2018-Feb-11 06:28N 17°01' W 061°47'0 0.0
2018-Feb-11 05:58N 17°01' W 061°47'0 0.0
2018-Feb-11 05:28N 17°01' W 061°47'0 0.0
2018-Feb-11 04:58N 17°01' W 061°47'0 0.0
2018-Feb-11 04:28N 17°01' W 061°47'0 0.0
2018-Feb-11 03:58N 17°01' W 061°47'0 0.0
2018-Feb-11 03:28N 17°01' W 061°47'0 0.0
2018-Feb-11 02:58N 17°01' W 061°47'0 0.0
2018-Feb-11 02:22N 17°01' W 061°47'0 0.0
2018-Feb-11 01:58N 17°01' W 061°47'0 0.0
2018-Feb-11 01:25N 17°01' W 061°47'0 0.0
2018-Feb-11 00:58N 17°01' W 061°47'0 0.0
2018-Feb-11 00:28N 17°01' W 061°47'0 0.0
2018-Feb-10 23:58N 17°01' W 061°47'0 0.0
2018-Feb-10 23:25N 17°01' W 061°47'0 0.0
2018-Feb-10 22:58N 17°01' W 061°47'0 0.0
2018-Feb-10 22:28N 17°01' W 061°47'0 0.0
2018-Feb-10 21:58N 17°01' W 061°47'0 0.0
2018-Feb-10 21:28N 17°01' W 061°47'0 0.0
2018-Feb-10 20:58N 17°01' W 061°47'0 0.0
2018-Feb-10 20:28N 17°01' W 061°47'0 0.0
2018-Feb-10 19:55N 17°01' W 061°47'0 0.0
2018-Feb-10 19:28N 17°01' W 061°47'0 0.0
2018-Feb-10 18:58N 17°01' W 061°47'0 0.0
2018-Feb-10 18:28N 17°01' W 061°47'0 0.0
2018-Feb-10 17:58N 17°01' W 061°47'0 0.0
2018-Feb-10 17:28N 17°01' W 061°47'0 0.0
2018-Feb-10 16:55N 17°01' W 061°47'0 0.0
2018-Feb-10 16:28N 17°01' W 061°47'0 0.0
2018-Feb-10 15:58N 17°01' W 061°47'0 0.0
2018-Feb-10 15:28N 17°01' W 061°47'0 0.0
2018-Feb-10 14:58N 17°01' W 061°47'0 0.0
2018-Feb-10 14:28N 17°01' W 061°47'0 0.0
2018-Feb-10 13:58N 17°01' W 061°47'0 0.0
2018-Feb-10 13:28N 17°01' W 061°47'0 0.0
2018-Feb-10 12:58N 17°01' W 061°47'0 0.0
2018-Feb-10 12:28N 17°01' W 061°47'0 0.0
2018-Feb-10 11:58N 17°01' W 061°47'0 0.0
2018-Feb-10 11:28N 17°01' W 061°47'0 0.0
2018-Feb-10 10:58N 17°01' W 061°47'0 0.0
2018-Feb-10 10:28N 17°01' W 061°47'0 0.0
2018-Feb-10 09:58N 17°01' W 061°47'0 0.0
2018-Feb-10 09:25N 17°01' W 061°47'0 0.0
2018-Feb-10 08:58N 17°01' W 061°47'0 0.0
2018-Feb-10 08:28N 17°01' W 061°47'0 0.0
2018-Feb-10 07:58N 17°01' W 061°47'0 0.0
2018-Feb-10 07:28N 17°01' W 061°47'0 0.0
2018-Feb-10 06:58N 17°01' W 061°47'0 0.0
2018-Feb-10 06:28N 17°01' W 061°47'0 0.0
2018-Feb-10 05:58N 17°01' W 061°47'0 0.0
2018-Feb-10 05:28N 17°01' W 061°47'0 0.0
2018-Feb-10 04:58N 17°01' W 061°47'0 0.0
2018-Feb-10 04:28N 17°01' W 061°47'0 0.0
2018-Feb-10 03:58N 17°01' W 061°47'0 0.0
2018-Feb-10 03:28N 17°01' W 061°47'0 0.0
2018-Feb-10 02:58N 17°01' W 061°47'0 0.0
2018-Feb-10 02:28N 17°01' W 061°47'0 0.0
2018-Feb-10 01:58N 17°01' W 061°47'0 0.0
2018-Feb-10 01:28N 17°01' W 061°47'0 0.0
2018-Feb-10 00:58N 17°01' W 061°47'0 0.0
2018-Feb-10 00:28N 17°01' W 061°47'0 0.0
2018-Feb-09 23:58N 17°01' W 061°47'0 0.0
2018-Feb-09 23:28N 17°01' W 061°47'0 0.0
2018-Feb-09 22:58N 17°01' W 061°47'0 0.0
2018-Feb-09 22:46N 17°01' W 061°47'7 0.2
2018-Feb-08 01:29N 17°04' W 061°40'0 0.0
2018-Feb-08 00:59N 17°04' W 061°40'  

Dump ship's entire track history